sensor_id;sensor_type;location;lat;lon;timestamp;pressure;altitude;pressure_sealevel;temperature;humidity
13612;BME280;6877;51.436;6.774;2023-08-06T00:01:49;99950.66;;;13.84;100.00
13612;BME280;6877;51.436;6.774;2023-08-06T00:04:16;99949.09;;;13.80;100.00
13612;BME280;6877;51.436;6.774;2023-08-06T00:06:43;99949.25;;;13.77;100.00
13612;BME280;6877;51.436;6.774;2023-08-06T00:09:09;99949.94;;;13.80;100.00
13612;BME280;6877;51.436;6.774;2023-08-06T00:11:36;99948.34;;;13.78;100.00
13612;BME280;6877;51.436;6.774;2023-08-06T00:14:02;99940.50;;;13.76;100.00
13612;BME280;6877;51.436;6.774;2023-08-06T00:16:29;99940.31;;;13.81;100.00
13612;BME280;6877;51.436;6.774;2023-08-06T00:18:55;99933.47;;;13.77;100.00
13612;BME280;6877;51.436;6.774;2023-08-06T00:21:22;99932.69;;;13.75;100.00
13612;BME280;6877;51.436;6.774;2023-08-06T00:23:48;99924.94;;;13.72;100.00
13612;BME280;6877;51.436;6.774;2023-08-06T00:26:14;99925.09;;;13.68;100.00
13612;BME280;6877;51.436;6.774;2023-08-06T00:28:41;99916.25;;;13.70;100.00
13612;BME280;6877;51.436;6.774;2023-08-06T00:31:12;99918.88;;;13.70;100.00
13612;BME280;6877;51.436;6.774;2023-08-06T00:33:39;99911.72;;;13.73;100.00
13612;BME280;6877;51.436;6.774;2023-08-06T00:36:10;99916.13;;;13.73;100.00
13612;BME280;6877;51.436;6.774;2023-08-06T00:38:37;99917.81;;;13.74;100.00
13612;BME280;6877;51.436;6.774;2023-08-06T00:41:08;99919.72;;;13.70;100.00
13612;BME280;6877;51.436;6.774;2023-08-06T00:43:35;99916.25;;;13.70;100.00
13612;BME280;6877;51.436;6.774;2023-08-06T00:46:01;99917.19;;;13.68;100.00
13612;BME280;6877;51.436;6.774;2023-08-06T00:48:28;99911.00;;;13.70;100.00
13612;BME280;6877;51.436;6.774;2023-08-06T00:50:55;99910.06;;;13.71;100.00
13612;BME280;6877;51.436;6.774;2023-08-06T00:53:26;99904.91;;;13.69;100.00
13612;BME280;6877;51.436;6.774;2023-08-06T00:55:58;99905.03;;;13.66;100.00
13612;BME280;6877;51.436;6.774;2023-08-06T00:58:25;99907.84;;;13.61;100.00
13612;BME280;6877;51.436;6.774;2023-08-06T01:00:51;99901.75;;;13.61;100.00
13612;BME280;6877;51.436;6.774;2023-08-06T01:03:21;99903.53;;;13.60;100.00
13612;BME280;6877;51.436;6.774;2023-08-06T01:05:47;99906.16;;;13.60;100.00
13612;BME280;6877;51.436;6.774;2023-08-06T01:11:40;99897.13;;;13.66;100.00
13612;BME280;6877;51.436;6.774;2023-08-06T01:14:19;99904.94;;;13.67;100.00
13612;BME280;6877;51.436;6.774;2023-08-06T01:16:50;99896.91;;;13.71;100.00
13612;BME280;6877;51.436;6.774;2023-08-06T01:19:18;99885.50;;;13.72;100.00
13612;BME280;6877;51.436;6.774;2023-08-06T01:21:45;99894.00;;;13.77;100.00
13612;BME280;6877;51.436;6.774;2023-08-06T01:24:11;99890.47;;;13.78;100.00
13612;BME280;6877;51.436;6.774;2023-08-06T01:26:51;99894.81;;;13.79;100.00
13612;BME280;6877;51.436;6.774;2023-08-06T01:29:35;99903.50;;;13.81;100.00
13612;BME280;6877;51.436;6.774;2023-08-06T01:32:11;99903.31;;;13.84;100.00
13612;BME280;6877;51.436;6.774;2023-08-06T01:34:44;99901.50;;;13.86;100.00
13612;BME280;6877;51.436;6.774;2023-08-06T01:37:13;99895.28;;;13.87;100.00
13612;BME280;6877;51.436;6.774;2023-08-06T01:39:45;99900.50;;;13.88;100.00
13612;BME280;6877;51.436;6.774;2023-08-06T01:42:12;99895.16;;;13.90;100.00
13612;BME280;6877;51.436;6.774;2023-08-06T01:44:38;99898.66;;;13.90;100.00
13612;BME280;6877;51.436;6.774;2023-08-06T01:47:05;99894.16;;;13.93;100.00
13612;BME280;6877;51.436;6.774;2023-08-06T01:49:32;99895.94;;;13.92;100.00
13612;BME280;6877;51.436;6.774;2023-08-06T01:51:58;99890.69;;;13.92;100.00
13612;BME280;6877;51.436;6.774;2023-08-06T01:54:24;99889.84;;;13.91;100.00
13612;BME280;6877;51.436;6.774;2023-08-06T01:56:51;99889.03;;;13.89;100.00
13612;BME280;6877;51.436;6.774;2023-08-06T01:59:17;99882.16;;;13.87;100.00
13612;BME280;6877;51.436;6.774;2023-08-06T02:01:44;99886.69;;;13.83;100.00
13612;BME280;6877;51.436;6.774;2023-08-06T02:04:11;99875.34;;;13.83;100.00
13612;BME280;6877;51.436;6.774;2023-08-06T02:06:37;99873.63;;;13.82;100.00
13612;BME280;6877;51.436;6.774;2023-08-06T02:09:04;99871.94;;;13.81;100.00
13612;BME280;6877;51.436;6.774;2023-08-06T02:11:30;99872.00;;;13.79;100.00
13612;BME280;6877;51.436;6.774;2023-08-06T02:13:58;99880.03;;;13.76;100.00
13612;BME280;6877;51.436;6.774;2023-08-06T02:16:24;99874.91;;;13.73;100.00
13612;BME280;6877;51.436;6.774;2023-08-06T02:18:51;99877.47;;;13.75;100.00
13612;BME280;6877;51.436;6.774;2023-08-06T02:21:17;99872.22;;;13.75;100.00
13612;BME280;6877;51.436;6.774;2023-08-06T02:23:44;99877.47;;;13.75;100.00
13612;BME280;6877;51.436;6.774;2023-08-06T02:26:15;99873.13;;;13.74;100.00
13612;BME280;6877;51.436;6.774;2023-08-06T02:28:42;99872.34;;;13.72;100.00
13612;BME280;6877;51.436;6.774;2023-08-06T02:31:13;99869.78;;;13.70;100.00
13612;BME280;6877;51.436;6.774;2023-08-06T02:33:44;99865.38;;;13.71;100.00
13612;BME280;6877;51.436;6.774;2023-08-06T02:36:16;99860.09;;;13.71;100.00
13612;BME280;6877;51.436;6.774;2023-08-06T02:38:42;99859.34;;;13.68;100.00
13612;BME280;6877;51.436;6.774;2023-08-06T02:41:09;99857.63;;;13.67;100.00
13612;BME280;6877;51.436;6.774;2023-08-06T02:43:35;99853.28;;;13.66;100.00
13612;BME280;6877;51.436;6.774;2023-08-06T02:46:02;99851.66;;;13.64;100.00
13612;BME280;6877;51.436;6.774;2023-08-06T02:48:28;99853.56;;;13.60;100.00
13612;BME280;6877;51.436;6.774;2023-08-06T02:50:58;99852.78;;;13.58;100.00
13612;BME280;6877;51.436;6.774;2023-08-06T02:53:25;99850.16;;;13.58;100.00
13612;BME280;6877;51.436;6.774;2023-08-06T02:55:52;99848.44;;;13.57;100.00
13612;BME280;6877;51.436;6.774;2023-08-06T02:58:19;99841.50;;;13.56;100.00
13612;BME280;6877;51.436;6.774;2023-08-06T03:01:05;99839.00;;;13.53;100.00
13612;BME280;6877;51.436;6.774;2023-08-06T03:03:33;99840.03;;;13.49;100.00
13612;BME280;6877;51.436;6.774;2023-08-06T03:06:00;99841.91;;;13.47;100.00
13612;BME280;6877;51.436;6.774;2023-08-06T03:08:26;99838.50;;;13.45;100.00
13612;BME280;6877;51.436;6.774;2023-08-06T03:10:53;99828.09;;;13.42;100.00
13612;BME280;6877;51.436;6.774;2023-08-06T03:13:19;99827.41;;;13.38;100.00
13612;BME280;6877;51.436;6.774;2023-08-06T03:15:56;99831.00;;;13.36;100.00
13612;BME280;6877;51.436;6.774;2023-08-06T03:18:23;99829.19;;;13.38;100.00
13612;BME280;6877;51.436;6.774;2023-08-06T03:20:49;99819.50;;;13.38;100.00
13612;BME280;6877;51.436;6.774;2023-08-06T03:23:16;99825.63;;;13.39;100.00
13612;BME280;6877;51.436;6.774;2023-08-06T03:25:47;99823.78;;;13.41;100.00
13612;BME280;6877;51.436;6.774;2023-08-06T03:28:14;99823.69;;;13.42;100.00
13612;BME280;6877;51.436;6.774;2023-08-06T03:30:45;99826.28;;;13.44;100.00
13612;BME280;6877;51.436;6.774;2023-08-06T03:33:12;99831.41;;;13.47;100.00
13612;BME280;6877;51.436;6.774;2023-08-06T03:35:43;99835.66;;;13.50;100.00
13612;BME280;6877;51.436;6.774;2023-08-06T03:38:10;99830.31;;;13.51;100.00
13612;BME280;6877;51.436;6.774;2023-08-06T03:40:36;99829.38;;;13.52;100.00
13612;BME280;6877;51.436;6.774;2023-08-06T03:43:03;99820.75;;;13.50;100.00
13612;BME280;6877;51.436;6.774;2023-08-06T03:45:29;99825.34;;;13.45;100.00
13612;BME280;6877;51.436;6.774;2023-08-06T03:47:55;99823.06;;;13.37;100.00
13612;BME280;6877;51.436;6.774;2023-08-06T03:50:22;99818.94;;;13.32;100.00
13612;BME280;6877;51.436;6.774;2023-08-06T03:52:48;99819.88;;;13.31;100.00
13612;BME280;6877;51.436;6.774;2023-08-06T03:55:15;99820.72;;;13.31;100.00
13612;BME280;6877;51.436;6.774;2023-08-06T03:57:41;99827.63;;;13.34;100.00
13612;BME280;6877;51.436;6.774;2023-08-06T04:00:08;99827.25;;;13.41;100.00
13612;BME280;6877;51.436;6.774;2023-08-06T04:02:35;99827.97;;;13.45;100.00
13612;BME280;6877;51.436;6.774;2023-08-06T04:05:06;99831.41;;;13.47;100.00
13612;BME280;6877;51.436;6.774;2023-08-06T04:07:33;99829.53;;;13.49;100.00
13612;BME280;6877;51.436;6.774;2023-08-06T04:10:01;99821.66;;;13.49;100.00
13612;BME280;6877;51.436;6.774;2023-08-06T04:12:29;99825.91;;;13.52;100.00
13612;BME280;6877;51.436;6.774;2023-08-06T04:14:57;99817.19;;;13.51;100.00
13612;BME280;6877;51.436;6.774;2023-08-06T04:17:24;99820.59;;;13.53;100.00
13612;BME280;6877;51.436;6.774;2023-08-06T04:19:52;99816.91;;;13.57;100.00
13612;BME280;6877;51.436;6.774;2023-08-06T04:22:24;99817.69;;;13.59;100.00
13612;BME280;6877;51.436;6.774;2023-08-06T04:24:50;99818.47;;;13.61;100.00
13612;BME280;6877;51.436;6.774;2023-08-06T04:27:18;99814.00;;;13.63;100.00
13612;BME280;6877;51.436;6.774;2023-08-06T04:29:44;99814.72;;;13.67;100.00
13612;BME280;6877;51.436;6.774;2023-08-06T04:32:12;99817.19;;;13.70;100.00
13612;BME280;6877;51.436;6.774;2023-08-06T04:34:44;99822.25;;;13.75;100.00
13612;BME280;6877;51.436;6.774;2023-08-06T04:37:10;99827.38;;;13.78;100.00
13612;BME280;6877;51.436;6.774;2023-08-06T04:39:37;99817.56;;;13.81;100.00
13612;BME280;6877;51.436;6.774;2023-08-06T04:42:03;99823.59;;;13.83;100.00
13612;BME280;6877;51.436;6.774;2023-08-06T04:44:30;99826.91;;;13.87;100.00
13612;BME280;6877;51.436;6.774;2023-08-06T04:46:56;99819.81;;;13.89;100.00
13612;BME280;6877;51.436;6.774;2023-08-06T04:49:25;99822.41;;;13.90;100.00
13612;BME280;6877;51.436;6.774;2023-08-06T04:51:56;99817.03;;;13.92;100.00
13612;BME280;6877;51.436;6.774;2023-08-06T04:54:22;99824.88;;;13.94;100.00
13612;BME280;6877;51.436;6.774;2023-08-06T04:56:49;99819.63;;;13.94;100.00
13612;BME280;6877;51.436;6.774;2023-08-06T04:59:15;99823.84;;;13.96;100.00
13612;BME280;6877;51.436;6.774;2023-08-06T05:01:47;99830.84;;;13.97;100.00
13612;BME280;6877;51.436;6.774;2023-08-06T05:04:13;99823.72;;;13.99;100.00
13612;BME280;6877;51.436;6.774;2023-08-06T05:06:39;99823.72;;;13.99;100.00
13612;BME280;6877;51.436;6.774;2023-08-06T05:09:07;99828.91;;;14.01;100.00
13612;BME280;6877;51.436;6.774;2023-08-06T05:11:38;99829.63;;;14.04;100.00
13612;BME280;6877;51.436;6.774;2023-08-06T05:14:10;99825.00;;;14.09;100.00
13612;BME280;6877;51.436;6.774;2023-08-06T05:16:36;99830.97;;;14.13;100.00
13612;BME280;6877;51.436;6.774;2023-08-06T05:19:02;99819.38;;;14.17;100.00
13612;BME280;6877;51.436;6.774;2023-08-06T05:21:34;99823.63;;;14.20;100.00
13612;BME280;6877;51.436;6.774;2023-08-06T05:24:05;99834.63;;;14.28;100.00
13612;BME280;6877;51.436;6.774;2023-08-06T05:26:32;99832.63;;;14.33;100.00
13612;BME280;6877;51.436;6.774;2023-08-06T05:28:58;99826.38;;;14.35;100.00
13612;BME280;6877;51.436;6.774;2023-08-06T05:31:24;99833.88;;;14.43;100.00
13612;BME280;6877;51.436;6.774;2023-08-06T05:33:51;99829.31;;;14.47;100.00
13612;BME280;6877;51.436;6.774;2023-08-06T05:36:23;99837.81;;;14.53;100.00
13612;BME280;6877;51.436;6.774;2023-08-06T05:38:49;99844.53;;;14.59;100.00
13612;BME280;6877;51.436;6.774;2023-08-06T05:41:15;99845.97;;;14.66;100.00
13612;BME280;6877;51.436;6.774;2023-08-06T05:43:42;99849.03;;;14.74;100.00
13612;BME280;6877;51.436;6.774;2023-08-06T05:46:08;99855.69;;;14.81;100.00
13612;BME280;6877;51.436;6.774;2023-08-06T05:48:35;99852.84;;;14.86;100.00
13612;BME280;6877;51.436;6.774;2023-08-06T05:51:01;99858.59;;;14.94;100.00
13612;BME280;6877;51.436;6.774;2023-08-06T05:53:28;99860.72;;;15.03;100.00
13612;BME280;6877;51.436;6.774;2023-08-06T05:55:54;99862.69;;;15.00;100.00
13612;BME280;6877;51.436;6.774;2023-08-06T05:58:20;99867.25;;;14.96;100.00
13612;BME280;6877;51.436;6.774;2023-08-06T06:00:52;99866.16;;;15.00;100.00
13612;BME280;6877;51.436;6.774;2023-08-06T06:03:18;99870.28;;;15.06;100.00
13612;BME280;6877;51.436;6.774;2023-08-06T06:05:50;99873.22;;;15.17;100.00
13612;BME280;6877;51.436;6.774;2023-08-06T06:08:21;99873.59;;;15.27;100.00
13612;BME280;6877;51.436;6.774;2023-08-06T06:10:47;99874.50;;;15.43;100.00
13612;BME280;6877;51.436;6.774;2023-08-06T06:13:14;99879.47;;;15.67;100.00
13612;BME280;6877;51.436;6.774;2023-08-06T06:15:40;99879.22;;;15.87;100.00
13612;BME280;6877;51.436;6.774;2023-08-06T06:18:07;99882.31;;;15.95;100.00
13612;BME280;6877;51.436;6.774;2023-08-06T06:20:33;99887.41;;;15.98;100.00
13612;BME280;6877;51.436;6.774;2023-08-06T06:23:00;99889.44;;;15.93;100.00
13612;BME280;6877;51.436;6.774;2023-08-06T06:25:26;99885.28;;;15.89;100.00
13612;BME280;6877;51.436;6.774;2023-08-06T06:27:52;99882.28;;;15.80;100.00
13612;BME280;6877;51.436;6.774;2023-08-06T06:30:24;99889.06;;;15.68;100.00
13612;BME280;6877;51.436;6.774;2023-08-06T06:32:50;99887.50;;;15.64;100.00
13612;BME280;6877;51.436;6.774;2023-08-06T06:35:17;99892.16;;;15.59;100.00
13612;BME280;6877;51.436;6.774;2023-08-06T06:37:43;99895.00;;;15.54;100.00
13612;BME280;6877;51.436;6.774;2023-08-06T06:40:10;99892.69;;;15.65;100.00
13612;BME280;6877;51.436;6.774;2023-08-06T06:42:37;99899.28;;;15.74;100.00
13612;BME280;6877;51.436;6.774;2023-08-06T06:45:09;99903.13;;;15.84;100.00
13612;BME280;6877;51.436;6.774;2023-08-06T06:47:35;99897.09;;;15.98;100.00
13612;BME280;6877;51.436;6.774;2023-08-06T06:50:02;99896.06;;;16.01;100.00
13612;BME280;6877;51.436;6.774;2023-08-06T06:52:29;99900.00;;;16.25;100.00
13612;BME280;6877;51.436;6.774;2023-08-06T06:55:01;99888.78;;;16.37;100.00
13612;BME280;6877;51.436;6.774;2023-08-06T06:57:27;99891.47;;;16.36;100.00
13612;BME280;6877;51.436;6.774;2023-08-06T07:00:01;99897.97;;;16.46;100.00
13612;BME280;6877;51.436;6.774;2023-08-06T07:02:28;99895.66;;;16.56;100.00
13612;BME280;6877;51.436;6.774;2023-08-06T07:04:59;99897.25;;;16.74;100.00
13612;BME280;6877;51.436;6.774;2023-08-06T07:07:31;99894.69;;;16.88;100.00
13612;BME280;6877;51.436;6.774;2023-08-06T07:09:57;99897.13;;;16.91;100.00
13612;BME280;6877;51.436;6.774;2023-08-06T07:12:23;99901.22;;;16.97;100.00
13612;BME280;6877;51.436;6.774;2023-08-06T07:14:55;99897.56;;;17.00;100.00
13612;BME280;6877;51.436;6.774;2023-08-06T07:17:21;99902.31;;;17.09;100.00
13612;BME280;6877;51.436;6.774;2023-08-06T07:19:48;99903.09;;;17.25;100.00
13612;BME280;6877;51.436;6.774;2023-08-06T07:22:14;99903.88;;;17.42;100.00
13612;BME280;6877;51.436;6.774;2023-08-06T07:24:41;99907.66;;;17.52;100.00
13612;BME280;6877;51.436;6.774;2023-08-06T07:27:07;99902.56;;;17.63;100.00
13612;BME280;6877;51.436;6.774;2023-08-06T07:29:38;99906.16;;;17.76;100.00
13612;BME280;6877;51.436;6.774;2023-08-06T07:32:06;99908.16;;;18.01;100.00
13612;BME280;6877;51.436;6.774;2023-08-06T07:34:33;99916.00;;;18.17;100.00
13612;BME280;6877;51.436;6.774;2023-08-06T07:36:59;99906.53;;;18.13;100.00
13612;BME280;6877;51.436;6.774;2023-08-06T07:39:26;99907.13;;;18.45;100.00
13612;BME280;6877;51.436;6.774;2023-08-06T07:41:54;99903.47;;;18.88;100.00
13612;BME280;6877;51.436;6.774;2023-08-06T07:44:26;99913.31;;;19.26;100.00
13612;BME280;6877;51.436;6.774;2023-08-06T07:46:52;99915.78;;;19.54;100.00
13612;BME280;6877;51.436;6.774;2023-08-06T07:49:19;99919.94;;;19.45;100.00
13612;BME280;6877;51.436;6.774;2023-08-06T07:51:45;99914.66;;;18.93;100.00
13612;BME280;6877;51.436;6.774;2023-08-06T07:54:12;99913.63;;;18.54;100.00
13612;BME280;6877;51.436;6.774;2023-08-06T07:56:38;99913.53;;;18.56;100.00
13612;BME280;6877;51.436;6.774;2023-08-06T07:59:05;99912.28;;;18.61;100.00
13612;BME280;6877;51.436;6.774;2023-08-06T08:01:31;99919.84;;;18.67;100.00
13612;BME280;6877;51.436;6.774;2023-08-06T08:03:57;99914.56;;;18.53;100.00
13612;BME280;6877;51.436;6.774;2023-08-06T08:06:24;99912.88;;;18.52;100.00
13612;BME280;6877;51.436;6.774;2023-08-06T08:08:50;99925.25;;;18.24;100.00
13612;BME280;6877;51.436;6.774;2023-08-06T08:11:18;99922.81;;;18.07;100.00
13612;BME280;6877;51.436;6.774;2023-08-06T08:13:44;99928.50;;;18.01;100.00
13612;BME280;6877;51.436;6.774;2023-08-06T08:16:11;99933.22;;;17.81;100.00
13612;BME280;6877;51.436;6.774;2023-08-06T08:18:37;99930.34;;;17.70;100.00
13612;BME280;6877;51.436;6.774;2023-08-06T08:21:04;99926.75;;;17.71;100.00
13612;BME280;6877;51.436;6.774;2023-08-06T08:23:30;99928.75;;;17.53;100.00
13612;BME280;6877;51.436;6.774;2023-08-06T08:25:57;99925.03;;;17.42;100.00
13612;BME280;6877;51.436;6.774;2023-08-06T08:28:24;99935.13;;;17.35;100.00
13612;BME280;6877;51.436;6.774;2023-08-06T08:30:50;99933.44;;;17.34;100.00
13612;BME280;6877;51.436;6.774;2023-08-06T08:33:17;99937.66;;;17.36;100.00
13612;BME280;6877;51.436;6.774;2023-08-06T08:35:45;99942.22;;;17.49;100.00
13612;BME280;6877;51.436;6.774;2023-08-06T08:38:16;99938.94;;;17.59;100.00
13612;BME280;6877;51.436;6.774;2023-08-06T08:40:46;99934.50;;;17.60;100.00
13612;BME280;6877;51.436;6.774;2023-08-06T08:43:22;99939.22;;;17.55;100.00
13612;BME280;6877;51.436;6.774;2023-08-06T08:45:50;99941.00;;;17.54;100.00
13612;BME280;6877;51.436;6.774;2023-08-06T08:48:18;99939.94;;;17.43;100.00
13612;BME280;6877;51.436;6.774;2023-08-06T08:50:50;99941.56;;;17.45;100.00
13612;BME280;6877;51.436;6.774;2023-08-06T08:53:17;99937.97;;;17.46;100.00
13612;BME280;6877;51.436;6.774;2023-08-06T08:55:47;99938.25;;;17.42;100.00
13612;BME280;6877;51.436;6.774;2023-08-06T08:58:15;99940.34;;;17.51;100.00
13612;BME280;6877;51.436;6.774;2023-08-06T09:00:42;99938.06;;;17.45;100.00
13612;BME280;6877;51.436;6.774;2023-08-06T09:03:09;99942.59;;;17.43;100.00
13612;BME280;6877;51.436;6.774;2023-08-06T09:05:36;99953.03;;;17.30;100.00
13612;BME280;6877;51.436;6.774;2023-08-06T09:08:10;99959.94;;;17.18;100.00
13612;BME280;6877;51.436;6.774;2023-08-06T09:10:39;99952.59;;;17.07;100.00
13612;BME280;6877;51.436;6.774;2023-08-06T09:13:05;99957.41;;;17.01;100.00
13612;BME280;6877;51.436;6.774;2023-08-06T09:15:32;99955.22;;;16.93;100.00
13612;BME280;6877;51.436;6.774;2023-08-06T09:18:12;99959.44;;;16.96;100.00
13612;BME280;6877;51.436;6.774;2023-08-06T09:20:39;99954.88;;;16.99;100.00
13612;BME280;6877;51.436;6.774;2023-08-06T09:23:10;99957.03;;;17.07;100.00
13612;BME280;6877;51.436;6.774;2023-08-06T09:25:40;99959.03;;;17.03;100.00
13612;BME280;6877;51.436;6.774;2023-08-06T09:28:07;99958.06;;;17.04;100.00
13612;BME280;6877;51.436;6.774;2023-08-06T09:30:39;99962.16;;;17.10;100.00
13612;BME280;6877;51.436;6.774;2023-08-06T09:33:10;99964.34;;;17.18;100.00
13612;BME280;6877;51.436;6.774;2023-08-06T09:35:36;99964.47;;;17.30;100.00
13612;BME280;6877;51.436;6.774;2023-08-06T09:38:07;99972.47;;;17.45;100.00
13612;BME280;6877;51.436;6.774;2023-08-06T09:40:34;99969.75;;;17.60;100.00
13612;BME280;6877;51.436;6.774;2023-08-06T09:43:01;99975.06;;;17.75;100.00
13612;BME280;6877;51.436;6.774;2023-08-06T09:45:30;99980.31;;;17.91;100.00
13612;BME280;6877;51.436;6.774;2023-08-06T09:47:57;99981.34;;;18.02;100.00
13612;BME280;6877;51.436;6.774;2023-08-06T09:50:29;99982.19;;;18.17;100.00
13612;BME280;6877;51.436;6.774;2023-08-06T09:53:00;99980.06;;;18.51;100.00
13612;BME280;6877;51.436;6.774;2023-08-06T09:55:27;99980.09;;;18.92;100.00
13612;BME280;6877;51.436;6.774;2023-08-06T09:57:54;99986.91;;;19.09;99.14
13612;BME280;6877;51.436;6.774;2023-08-06T10:00:21;99985.22;;;19.08;99.69
13612;BME280;6877;51.436;6.774;2023-08-06T10:02:48;99988.75;;;18.94;99.75
13612;BME280;6877;51.436;6.774;2023-08-06T10:05:18;99982.66;;;19.07;100.00
13612;BME280;6877;51.436;6.774;2023-08-06T10:07:50;99983.03;;;19.28;98.69
13612;BME280;6877;51.436;6.774;2023-08-06T10:10:25;99988.31;;;19.55;95.77
13612;BME280;6877;51.436;6.774;2023-08-06T10:12:54;99991.72;;;19.95;92.62
13612;BME280;6877;51.436;6.774;2023-08-06T10:15:25;99994.34;;;20.46;91.66
13612;BME280;6877;51.436;6.774;2023-08-06T10:17:55;99990.19;;;20.55;87.08
13612;BME280;6877;51.436;6.774;2023-08-06T10:20:32;99992.09;;;20.90;87.48
13612;BME280;6877;51.436;6.774;2023-08-06T10:23:05;99999.00;;;22.65;79.17
13612;BME280;6877;51.436;6.774;2023-08-06T10:25:35;100007.69;;;22.79;75.30
13612;BME280;6877;51.436;6.774;2023-08-06T10:28:11;100000.72;;;22.10;77.58
13612;BME280;6877;51.436;6.774;2023-08-06T10:30:42;99998.84;;;21.66;80.79
13612;BME280;6877;51.436;6.774;2023-08-06T10:33:10;99999.50;;;21.21;80.29
13612;BME280;6877;51.436;6.774;2023-08-06T10:35:40;99999.50;;;20.73;82.32
13612;BME280;6877;51.436;6.774;2023-08-06T10:38:11;99994.88;;;20.38;84.73
13612;BME280;6877;51.436;6.774;2023-08-06T10:40:40;99992.38;;;20.11;83.38
13612;BME280;6877;51.436;6.774;2023-08-06T10:43:07;99997.88;;;19.83;85.18
13612;BME280;6877;51.436;6.774;2023-08-06T10:45:37;100003.88;;;19.74;86.85
13612;BME280;6877;51.436;6.774;2023-08-06T10:48:09;100004.44;;;19.52;88.36
13612;BME280;6877;51.436;6.774;2023-08-06T10:50:35;100021.47;;;18.95;90.58
13612;BME280;6877;51.436;6.774;2023-08-06T10:53:04;100022.84;;;18.30;95.48
13612;BME280;6877;51.436;6.774;2023-08-06T10:55:32;100016.38;;;17.77;98.21
13612;BME280;6877;51.436;6.774;2023-08-06T10:57:58;100025.25;;;17.16;100.00
13612;BME280;6877;51.436;6.774;2023-08-06T11:00:25;100030.13;;;16.76;100.00
13612;BME280;6877;51.436;6.774;2023-08-06T11:02:54;100036.22;;;16.45;100.00
13612;BME280;6877;51.436;6.774;2023-08-06T11:05:21;100037.78;;;16.16;100.00
13612;BME280;6877;51.436;6.774;2023-08-06T11:07:52;100027.50;;;15.94;100.00
13612;BME280;6877;51.436;6.774;2023-08-06T11:10:19;100034.50;;;15.78;100.00
13612;BME280;6877;51.436;6.774;2023-08-06T11:12:45;100040.78;;;15.58;100.00
13612;BME280;6877;51.436;6.774;2023-08-06T11:15:12;100047.03;;;15.20;100.00
13612;BME280;6877;51.436;6.774;2023-08-06T11:17:43;100042.50;;;14.86;100.00
13612;BME280;6877;51.436;6.774;2023-08-06T11:20:14;100039.34;;;14.60;100.00
13612;BME280;6877;51.436;6.774;2023-08-06T11:22:41;100047.25;;;14.40;100.00
13612;BME280;6877;51.436;6.774;2023-08-06T11:25:07;100048.06;;;14.22;100.00
13612;BME280;6877;51.436;6.774;2023-08-06T11:27:39;100047.97;;;14.04;100.00
13612;BME280;6877;51.436;6.774;2023-08-06T11:30:06;100042.97;;;13.98;100.00
13612;BME280;6877;51.436;6.774;2023-08-06T11:32:32;100044.81;;;13.96;100.00
13612;BME280;6877;51.436;6.774;2023-08-06T11:35:10;100062.31;;;13.97;100.00
13612;BME280;6877;51.436;6.774;2023-08-06T11:37:39;100059.16;;;13.89;100.00
13612;BME280;6877;51.436;6.774;2023-08-06T11:40:15;100062.00;;;13.84;100.00
13612;BME280;6877;51.436;6.774;2023-08-06T11:42:41;100068.25;;;13.82;100.00
13612;BME280;6877;51.436;6.774;2023-08-06T11:45:08;100067.53;;;13.78;100.00
13612;BME280;6877;51.436;6.774;2023-08-06T11:47:49;100066.94;;;13.72;100.00
13612;BME280;6877;51.436;6.774;2023-08-06T11:50:22;100071.44;;;13.68;100.00
13612;BME280;6877;51.436;6.774;2023-08-06T11:53:01;100082.03;;;13.66;100.00
13612;BME280;6877;51.436;6.774;2023-08-06T11:55:28;100085.66;;;13.64;100.00
13612;BME280;6877;51.436;6.774;2023-08-06T11:57:55;100076.78;;;13.66;100.00
13612;BME280;6877;51.436;6.774;2023-08-06T12:00:26;100094.22;;;13.69;100.00
13612;BME280;6877;51.436;6.774;2023-08-06T12:02:58;100095.19;;;13.66;100.00
13612;BME280;6877;51.436;6.774;2023-08-06T12:05:30;100096.88;;;13.67;100.00
13612;BME280;6877;51.436;6.774;2023-08-06T12:07:59;100092.34;;;13.71;100.00
13612;BME280;6877;51.436;6.774;2023-08-06T12:10:32;100098.63;;;13.68;100.00
13612;BME280;6877;51.436;6.774;2023-08-06T12:12:59;100112.53;;;13.71;100.00
13612;BME280;6877;51.436;6.774;2023-08-06T12:15:26;100093.81;;;13.78;100.00
13612;BME280;6877;51.436;6.774;2023-08-06T12:17:57;100109.59;;;13.78;100.00
13612;BME280;6877;51.436;6.774;2023-08-06T12:20:24;100108.34;;;13.87;100.00
13612;BME280;6877;51.436;6.774;2023-08-06T12:22:51;100108.06;;;13.93;100.00
13612;BME280;6877;51.436;6.774;2023-08-06T12:25:18;100112.09;;;14.02;100.00
13612;BME280;6877;51.436;6.774;2023-08-06T12:27:44;100112.78;;;14.07;100.00
13612;BME280;6877;51.436;6.774;2023-08-06T12:30:12;100117.69;;;14.14;100.00
13612;BME280;6877;51.436;6.774;2023-08-06T12:32:39;100112.16;;;14.21;100.00
13612;BME280;6877;51.436;6.774;2023-08-06T12:35:06;100118.72;;;14.31;100.00
13612;BME280;6877;51.436;6.774;2023-08-06T12:37:34;100113.31;;;14.34;100.00
13612;BME280;6877;51.436;6.774;2023-08-06T12:40:00;100133.91;;;14.45;100.00
13612;BME280;6877;51.436;6.774;2023-08-06T12:42:27;100131.63;;;14.57;100.00
13612;BME280;6877;51.436;6.774;2023-08-06T12:44:58;100140.28;;;14.59;100.00
13612;BME280;6877;51.436;6.774;2023-08-06T12:47:25;100144.56;;;14.62;100.00
13612;BME280;6877;51.436;6.774;2023-08-06T12:49:51;100148.06;;;14.63;100.00
13612;BME280;6877;51.436;6.774;2023-08-06T12:52:17;100148.72;;;14.68;100.00
13612;BME280;6877;51.436;6.774;2023-08-06T12:54:50;100148.59;;;14.71;100.00
13612;BME280;6877;51.436;6.774;2023-08-06T12:57:17;100146.88;;;14.70;100.00
13612;BME280;6877;51.436;6.774;2023-08-06T12:59:43;100150.28;;;14.72;100.00
13612;BME280;6877;51.436;6.774;2023-08-06T13:02:10;100157.06;;;14.77;100.00
13612;BME280;6877;51.436;6.774;2023-08-06T13:04:36;100164.03;;;14.78;100.00
13612;BME280;6877;51.436;6.774;2023-08-06T13:07:03;100163.59;;;14.69;100.00
13612;BME280;6877;51.436;6.774;2023-08-06T13:09:34;100162.03;;;14.65;100.00